Weather History for Rickenbacker, OH

Change the Weather History Date:

Monday, December 10, 2012

  Actual Average Record
Temperature  
Mean Temperature 44 °F -  
Max Temperature 53 °F 42 °F 55 °F (1996)
Min Temperature 34 °F 28 °F 15 °F (2013)
Degree Days  
Heating Degree Days 22    
Moisture  
Dew Point 38 °F    
Average Humidity 83    
Maximum Humidity 89    
Minimum Humidity 74    
Precipitation  
Precipitation 0.00 in - - ()
Sea Level Pressure  
Sea Level Pressure 29.72 in    
Wind  
Wind Speed 10 mph (West)    
Max Wind Speed 16 mph    
Max Gust Speed 22 mph    
Visibility 9 miles    
Events Rain , Snow , Thunderstorm    
Averages and records for this station are not official NWS values.
T = Trace of Precipitation, MM = Missing Value Source: NWS Daily Summary

Daily Weather History Graph

Daily Weather History Graph

Search for Another Location

Airport:

Trip Planner

Search our weather history database for the weather conditions in past years. The results will help you decide how hot, cold, wet, or windy it might be!

Date:

Astronomy

Dec. 10, 2012 Rise Set
Actual Time 7:42 AM EST 5:07 PM EST
Civil Twilight 7:12 AM EST 5:37 PM EST
Nautical Twilight 6:38 AM EST 6:11 PM EST
Astronomical Twilight 6:05 AM EST 6:44 PM EST
Moon 4:24 AM EST (12/10) 2:55 PM EST (12/10)
Length of Visible Light 10h 25m
Length of Day
9h 24m
Waning Crescent, 10% of the Moon is Illuminated
Dec 10
Waning Crescent
Dec 13
New
Dec 20
First Quarter
Dec 28
Full
Jan 4
Last Quarter

Hourly Weather History & Observations

Time (EST) Temp. Windchill Dew Point Humidity Pressure Visibility Wind Dir Wind Speed Gust Speed Precip Events Conditions
12:15 AM 53.2 °F - 48.9 °F 85% 29.71 in 10.0 mi SW 11.5 mph - N/A Rain Light Rain
12:35 AM 52.5 °F - 48.4 °F 86% 29.71 in 10.0 mi SW 15.0 mph - N/A Rain Light Rain
12:55 AM 52.0 °F - 47.8 °F 86% 29.70 in 10.0 mi SSW 9.2 mph - N/A Rain Rain
1:15 AM 51.3 °F - 47.3 °F 86% 29.67 in 7.0 mi SSE 10.4 mph - N/A Rain Light Rain
1:35 AM 51.1 °F - 47.5 °F 87% 29.68 in 10.0 mi South 10.4 mph - N/A Rain Rain
1:55 AM 50.9 °F - 47.3 °F 87% 29.67 in 10.0 mi South 11.5 mph - N/A Rain Light Rain
2:15 AM 51.1 °F - 47.5 °F 87% 29.67 in 10.0 mi South 11.5 mph - N/A Rain Light Rain
2:35 AM 51.1 °F - 47.5 °F 87% 29.68 in 10.0 mi South 9.2 mph - N/A Rain Light Rain
2:55 AM 51.1 °F - 47.5 °F 87% 29.68 in 10.0 mi SSW 10.4 mph - N/A   Overcast
3:15 AM 51.3 °F - 47.7 °F 87% 29.67 in 10.0 mi SSW 11.5 mph - N/A   Overcast
3:55 AM 51.3 °F - 47.7 °F 87% 29.66 in 5.0 mi South 9.2 mph - N/A   Drizzle
4:15 AM 51.3 °F - 48.2 °F 89% 29.66 in 7.0 mi South 8.1 mph - N/A   Overcast
4:35 AM 51.3 °F - 48.2 °F 89% 29.65 in 10.0 mi South 10.4 mph - N/A   Overcast
4:55 AM 51.4 °F - 48.2 °F 89% 29.65 in 10.0 mi South 9.2 mph - N/A   Overcast
5:15 AM 51.3 °F - 47.8 °F 88% 29.64 in 10.0 mi SSW 6.9 mph - N/A Rain Light Rain
5:35 AM 51.3 °F - 48.2 °F 89% 29.64 in 10.0 mi SSW 6.9 mph - N/A   Overcast
5:55 AM 50.5 °F - 47.3 °F 89% 29.66 in 5.0 mi NNW 12.7 mph 21.9 mph N/A Rain Light Rain
6:15 AM 47.8 °F - 44.2 °F 87% 29.66 in 4.0 mi WNW 11.5 mph 20.7 mph N/A   Light Drizzle
6:35 AM 46.8 °F - 43.0 °F 87% 29.67 in 10.0 mi WNW 6.9 mph - N/A   Overcast
6:55 AM 46.6 °F - 42.8 °F 87% 29.66 in 10.0 mi WNW 6.9 mph - N/A   Overcast
7:15 AM 46.4 °F 42.9 °F 42.4 °F 86% 29.67 in 10.0 mi WNW 6.9 mph - N/A   Overcast
7:35 AM 46.4 °F 43.5 °F 42.3 °F 85% 29.66 in 7.0 mi WNW 5.8 mph - N/A   Overcast
7:55 AM 46.4 °F 45.2 °F 42.3 °F 85% 29.67 in 7.0 mi West 3.5 mph - N/A   Overcast
8:15 AM 46.4 °F - 42.6 °F 87% 29.67 in 5.0 mi Calm Calm - N/A   Overcast
8:35 AM 46.0 °F 41.9 °F 42.1 °F 86% 29.68 in 7.0 mi West 8.1 mph - N/A   Overcast
8:55 AM 45.7 °F 40.2 °F 41.4 °F 85% 29.68 in 5.0 mi WNW 11.5 mph - N/A   Haze
9:15 AM 44.8 °F 38.3 °F 40.5 °F 85% 29.68 in 4.0 mi WNW 13.8 mph - N/A   Overcast
9:35 AM 43.9 °F 37.2 °F 39.2 °F 84% 29.69 in 7.0 mi NW 13.8 mph 17.3 mph N/A   Overcast
9:55 AM 42.3 °F 35.1 °F 38.3 °F 86% 29.69 in 2.5 mi NW 13.8 mph - N/A   Light Drizzle
10:15 AM 41.0 °F 34.7 °F 37.2 °F 86% 29.69 in 4.0 mi NNW 10.4 mph - N/A   Overcast
10:35 AM 41.0 °F 34.7 °F 37.0 °F 86% 29.68 in 5.0 mi NNW 10.4 mph - N/A   Light Drizzle
10:55 AM 40.3 °F 33.4 °F 36.3 °F 86% 29.70 in 5.0 mi NW 11.5 mph - N/A   Overcast
11:15 AM 39.6 °F 33.5 °F 35.2 °F 85% 29.70 in 5.0 mi NW 9.2 mph - N/A   Overcast
11:35 AM 39.6 °F 34.0 °F 35.1 °F 84% 29.67 in 5.0 mi NNW 8.1 mph - N/A Thunderstorm Drizzle
11:55 AM 40.8 °F 34.5 °F 35.4 °F 81% 29.68 in 10.0 mi WNW 10.4 mph - N/A   Overcast
12:15 PM 41.5 °F 36.4 °F 35.1 °F 78% 29.70 in 10.0 mi WNW 8.1 mph - N/A   Overcast
12:35 PM 41.9 °F 35.4 °F 34.7 °F 76% 29.70 in 10.0 mi WNW 11.5 mph - N/A   Overcast
12:55 PM 41.5 °F 35.9 °F 34.3 °F 76% 29.69 in 10.0 mi WNW 9.2 mph - N/A   Overcast
1:15 PM 41.2 °F 35.5 °F 34.0 °F 76% 29.70 in 10.0 mi WNW 9.2 mph - N/A Rain Rain
1:35 PM 41.2 °F 34.5 °F 33.8 °F 75% 29.69 in 10.0 mi WNW 11.5 mph - N/A   Overcast
1:55 PM 41.4 °F 35.7 °F 33.8 °F 74% 29.68 in 10.0 mi WNW 9.2 mph - N/A   Overcast
2:15 PM 41.5 °F 37.1 °F 34.2 °F 75% 29.68 in 10.0 mi NW 6.9 mph - N/A   Overcast
2:35 PM 41.5 °F 37.1 °F 34.3 °F 76% 29.68 in 10.0 mi NW 6.9 mph - N/A Rain Rain
2:55 PM 41.7 °F 36.7 °F 34.5 °F 76% 29.68 in 10.0 mi WNW 8.1 mph - N/A   Overcast
3:15 PM 41.7 °F 33.7 °F 34.5 °F 76% 29.70 in 10.0 mi WNW 16.1 mph 19.6 mph N/A   Overcast
3:35 PM 40.1 °F 33.2 °F 33.6 °F 78% 29.71 in 10.0 mi WNW 11.5 mph - N/A Rain Rain
3:55 PM 39.2 °F 31.6 °F 32.5 °F 77% 29.73 in 10.0 mi WNW 12.7 mph 17.3 mph N/A   Light Drizzle
4:15 PM 39.2 °F 31.6 °F 32.4 °F 76% 29.73 in 10.0 mi NW 12.7 mph - N/A   Overcast
4:35 PM 38.5 °F 31.6 °F 32.0 °F 78% 29.75 in 10.0 mi WNW 10.4 mph 17.3 mph N/A   Overcast
4:55 PM 37.8 °F 31.3 °F 31.8 °F 79% 29.76 in 7.0 mi WNW 9.2 mph - N/A Rain Light Rain
5:15 PM 36.7 °F 28.0 °F 31.5 °F 81% 29.76 in 7.0 mi WNW 13.8 mph - N/A Snow Light Snow
5:35 PM 35.8 °F 28.8 °F 30.4 °F 81% 29.76 in 7.0 mi WNW 9.2 mph - N/A Snow Light Snow
5:55 PM 35.6 °F 29.2 °F 30.2 °F 81% 29.78 in 7.0 mi WNW 8.1 mph - N/A Snow Light Snow
6:15 PM 35.2 °F 29.5 °F 30.2 °F 82% 29.78 in 10.0 mi West 6.9 mph - N/A   Overcast
6:35 PM 35.2 °F 30.3 °F 30.2 °F 82% 29.78 in 10.0 mi West 5.8 mph - N/A   Overcast
6:55 PM 35.2 °F 29.5 °F 30.2 °F 82% 29.77 in 10.0 mi West 6.9 mph - N/A   Overcast
7:15 PM 35.1 °F 30.1 °F 30.0 °F 82% 29.77 in 10.0 mi WSW 5.8 mph - N/A   Overcast
7:35 PM 35.1 °F 27.4 °F 30.2 °F 82% 29.78 in 7.0 mi West 10.4 mph - N/A   Overcast
7:55 PM 35.2 °F 27.6 °F 30.0 °F 81% 29.80 in 10.0 mi WNW 10.4 mph - N/A   Overcast
8:15 PM 35.4 °F 27.8 °F 29.7 °F 80% 29.81 in 10.0 mi West 10.4 mph - N/A   Overcast
8:35 PM 35.6 °F 28.6 °F 29.5 °F 78% 29.83 in 10.0 mi WNW 9.2 mph - N/A   Overcast
8:55 PM 35.4 °F 27.8 °F 29.3 °F 78% 29.83 in 10.0 mi WNW 10.4 mph 16.1 mph N/A   Overcast
9:15 PM 35.2 °F 28.1 °F 29.5 °F 80% 29.84 in 10.0 mi WNW 9.2 mph - N/A   Overcast
9:55 PM 35.6 °F 29.2 °F 29.8 °F 80% 29.86 in 10.0 mi West 8.1 mph - N/A   Overcast
10:15 PM 35.6 °F 29.9 °F 29.8 °F 80% 29.86 in 10.0 mi WNW 6.9 mph - N/A   Overcast
10:35 PM 35.2 °F 27.6 °F 29.8 °F 81% 29.87 in 10.0 mi West 10.4 mph - N/A   Overcast
10:55 PM 34.9 °F 29.0 °F 29.7 °F 81% 29.87 in 10.0 mi WNW 6.9 mph - N/A   Overcast
11:15 PM 35.1 °F 27.9 °F 29.8 °F 81% 29.88 in 10.0 mi West 9.2 mph - N/A   Overcast
11:35 PM 34.9 °F 27.7 °F 30.0 °F 82% 29.90 in 7.0 mi West 9.2 mph - N/A   Overcast
11:55 PM 35.1 °F 27.9 °F 29.7 °F 81% 29.90 in 10.0 mi West 9.2 mph - N/A   Overcast